createdAt,value
2017-12-06T00:00:43.895Z,84.60
2017-12-06T00:01:43.799Z,85.40
2017-12-06T00:02:43.884Z,84.79
2017-12-06T00:03:43.839Z,84.95
2017-12-06T00:04:43.792Z,84.76
2017-12-06T00:05:43.839Z,84.28
2017-12-06T00:06:43.841Z,84.34
2017-12-06T00:07:43.882Z,83.70
2017-12-06T00:08:43.840Z,83.83
2017-12-06T00:09:43.841Z,84.17
2017-12-06T00:10:43.788Z,84.02
2017-12-06T00:11:43.794Z,84.20
2017-12-06T00:12:43.900Z,83.70
2017-12-06T00:13:43.845Z,84.17
2017-12-06T00:14:43.847Z,83.65
2017-12-06T00:15:43.935Z,84.20
2017-12-06T00:16:43.884Z,84.34
2017-12-06T00:17:43.944Z,84.66
2017-12-06T00:18:43.943Z,84.60
2017-12-06T00:19:43.815Z,84.71
2017-12-06T00:20:43.930Z,85.11
2017-12-06T00:21:43.918Z,83.78
2017-12-06T00:22:43.953Z,83.83
2017-12-06T00:23:43.884Z,84.20
2017-12-06T00:24:43.948Z,83.81
2017-12-06T00:25:43.888Z,83.65
2017-12-06T00:26:43.949Z,83.94
2017-12-06T00:27:43.884Z,83.33
2017-12-06T00:28:43.955Z,84.34
2017-12-06T00:29:43.887Z,83.49
2017-12-06T00:30:43.951Z,83.70
2017-12-06T00:31:43.886Z,83.01
2017-12-06T00:32:43.953Z,83.36
2017-12-06T00:33:43.887Z,83.22
2017-12-06T00:34:43.973Z,83.97
2017-12-06T00:35:43.894Z,83.59
2017-12-06T00:36:43.955Z,83.49
2017-12-06T00:37:43.961Z,83.20
2017-12-06T00:38:43.890Z,84.05
2017-12-06T00:39:43.960Z,82.72
2017-12-06T00:40:43.960Z,83.38
2017-12-06T00:41:43.896Z,83.46
2017-12-06T00:42:43.962Z,83.89
2017-12-06T00:43:43.894Z,82.96
2017-12-06T00:44:43.958Z,83.01
2017-12-06T00:45:43.893Z,82.85
2017-12-06T00:46:43.961Z,82.85
2017-12-06T00:47:43.897Z,82.77
2017-12-06T00:48:43.897Z,83.46
2017-12-06T00:49:43.969Z,83.33
2017-12-06T00:50:43.897Z,83.86
2017-12-06T00:51:43.965Z,83.51
2017-12-06T00:52:43.904Z,82.64
2017-12-06T00:53:43.896Z,82.40
2017-12-06T00:54:43.986Z,82.96
2017-12-06T00:55:43.971Z,83.51
2017-12-06T00:56:43.934Z,83.75
2017-12-06T00:57:43.970Z,83.59
2017-12-06T00:58:43.902Z,83.01
2017-12-06T00:59:43.903Z,83.28
2017-12-06T01:00:43.904Z,83.62
2017-12-06T01:01:43.982Z,82.29
2017-12-06T01:02:43.904Z,82.80
2017-12-06T01:03:43.909Z,83.17
2017-12-06T01:04:43.984Z,82.75
2017-12-06T01:05:43.907Z,83.46
2017-12-06T01:06:43.974Z,82.61
2017-12-06T01:07:43.974Z,82.03
2017-12-06T01:08:43.974Z,82.45
2017-12-06T01:09:43.974Z,81.82
2017-12-06T01:10:43.909Z,82.03
2017-12-06T01:11:43.914Z,81.50
2017-12-06T01:12:43.859Z,81.92
2017-12-06T01:13:43.912Z,82.14
2017-12-06T01:14:43.862Z,82.32
2017-12-06T01:15:43.848Z,82.48
2017-12-06T01:16:43.862Z,82.45
2017-12-06T01:17:43.841Z,82.00
2017-12-06T01:18:43.808Z,81.24
2017-12-06T01:19:43.800Z,80.84
2017-12-06T01:20:43.887Z,81.74
2017-12-06T01:21:43.861Z,81.68
2017-12-06T01:22:43.884Z,80.92
2017-12-06T01:23:43.832Z,80.92
2017-12-06T01:24:43.837Z,80.63
2017-12-06T01:25:43.935Z,81.26
2017-12-06T01:26:43.843Z,81.50
2017-12-06T01:27:43.918Z,80.71
2017-12-06T01:28:43.881Z,81.13
2017-12-06T01:29:43.840Z,80.79
2017-12-06T01:30:43.888Z,80.73
2017-12-06T01:31:43.842Z,81.16
2017-12-06T01:32:43.888Z,80.29
2017-12-06T01:33:43.869Z,80.07
2017-12-06T01:34:43.981Z,80.13
2017-12-06T01:35:43.960Z,80.65
2017-12-06T01:36:43.989Z,79.97
2017-12-06T01:37:43.989Z,80.57
2017-12-06T01:38:43.926Z,80.65
2017-12-06T01:39:43.874Z,80.13
2017-12-06T01:40:43.936Z,80.57
2017-12-06T01:41:43.983Z,80.23
2017-12-06T01:42:43.923Z,80.31
2017-12-06T01:43:44.008Z,80.71
2017-12-06T01:44:43.996Z,80.55
2017-12-06T01:45:43.931Z,80.23
2017-12-06T01:46:43.997Z,80.73
2017-12-06T01:47:43.928Z,80.41
2017-12-06T01:48:43.885Z,80.13
2017-12-06T01:49:43.939Z,80.49
2017-12-06T01:50:44.001Z,80.73
2017-12-06T01:51:43.936Z,79.94
2017-12-06T01:52:43.934Z,80.33
2017-12-06T01:53:43.937Z,79.39
2017-12-06T01:54:44.002Z,79.39
2017-12-06T01:55:43.937Z,79.33
2017-12-06T01:56:44.002Z,79.83
2017-12-06T01:57:44.004Z,79.23
2017-12-06T01:58:43.939Z,79.49
2017-12-06T01:59:43.939Z,78.62
2017-12-06T02:00:44.028Z,79.10
2017-12-06T02:01:44.007Z,78.33
2017-12-06T02:02:44.006Z,79.10
2017-12-06T02:03:43.943Z,79.02
2017-12-06T02:04:44.009Z,79.83
2017-12-06T02:05:43.943Z,78.99
2017-12-06T02:06:44.008Z,79.71
2017-12-06T02:07:43.946Z,79.15
2017-12-06T02:08:44.016Z,78.99
2017-12-06T02:09:43.947Z,78.28
2017-12-06T02:10:43.947Z,78.28
2017-12-06T02:11:44.012Z,79.39
2017-12-06T02:12:43.946Z,79.23
2017-12-06T02:13:44.018Z,78.97
2017-12-06T02:14:43.949Z,78.05
2017-12-06T02:15:44.018Z,79.05
2017-12-06T02:16:43.948Z,78.67
2017-12-06T02:17:44.016Z,78.23
2017-12-06T02:18:44.011Z,78.05
2017-12-06T02:19:43.960Z,78.20
2017-12-06T02:20:44.031Z,78.01
2017-12-06T02:21:43.954Z,78.47
2017-12-06T02:22:43.905Z,77.67
2017-12-06T02:23:43.970Z,78.36
2017-12-06T02:24:43.962Z,78.01
2017-12-06T02:25:43.911Z,78.99
2017-12-06T02:26:43.879Z,78.57
2017-12-06T02:27:43.977Z,78.20
2017-12-06T02:28:43.910Z,78.62
2017-12-06T02:29:43.891Z,78.78
2017-12-06T02:30:43.890Z,79.39
2017-12-06T02:31:43.917Z,78.86
2017-12-06T02:32:44.029Z,78.67
2017-12-06T02:33:44.029Z,78.73
2017-12-06T02:34:43.956Z,78.97
2017-12-06T02:35:43.954Z,78.52
2017-12-06T02:36:44.026Z,78.31
2017-12-06T02:37:43.975Z,78.49
2017-12-06T02:38:44.027Z,78.07
2017-12-06T02:39:44.031Z,78.86
2017-12-06T02:40:44.031Z,78.81
2017-12-06T02:41:43.964Z,78.01
2017-12-06T02:42:43.977Z,78.67
2017-12-06T02:43:43.928Z,79.02
2017-12-06T02:44:43.900Z,78.99
2017-12-06T02:45:43.926Z,78.67
2017-12-06T02:46:43.930Z,78.99
2017-12-06T02:47:43.891Z,79.02
2017-12-06T02:48:43.927Z,78.62
2017-12-06T02:49:43.929Z,79.28
2017-12-06T02:50:43.888Z,79.10
2017-12-06T02:51:43.983Z,79.05
2017-12-06T02:52:44.042Z,78.99
2017-12-06T02:53:43.976Z,79.15
2017-12-06T02:54:43.974Z,78.89
2017-12-06T02:55:43.924Z,79.28
2017-12-06T02:56:43.977Z,78.91
2017-12-06T02:57:43.975Z,79.02
2017-12-06T02:58:43.973Z,79.13
2017-12-06T02:59:44.050Z,78.99
2017-12-06T03:00:44.048Z,79.23
2017-12-06T03:01:43.979Z,79.49
2017-12-06T03:02:43.895Z,78.78
2017-12-06T03:03:43.899Z,79.36
2017-12-06T03:04:43.897Z,79.44
2017-12-06T03:05:43.897Z,79.17
2017-12-06T03:06:43.946Z,79.63
2017-12-06T03:07:44.000Z,80.07
2017-12-06T03:08:43.946Z,80.13
2017-12-06T03:09:43.896Z,80.26
2017-12-06T03:10:44.003Z,80.33
2017-12-06T03:11:43.903Z,79.71
2017-12-06T03:12:43.954Z,80.79
2017-12-06T03:13:43.903Z,79.86
2017-12-06T03:14:43.905Z,79.94
2017-12-06T03:15:43.903Z,79.68
2017-12-06T03:16:43.954Z,79.49
2017-12-06T03:17:43.958Z,80.02
2017-12-06T03:18:43.954Z,80.33
2017-12-06T03:19:43.958Z,80.31
2017-12-06T03:20:43.906Z,79.73
2017-12-06T03:21:44.001Z,80.57
2017-12-06T03:22:43.908Z,80.33
2017-12-06T03:23:43.907Z,80.79
2017-12-06T03:24:44.008Z,81.08
2017-12-06T03:25:44.004Z,79.89
2017-12-06T03:26:44.007Z,79.94
2017-12-06T03:27:43.957Z,80.26
2017-12-06T03:28:43.907Z,80.73
2017-12-06T03:29:43.958Z,80.92
2017-12-06T03:30:43.914Z,80.97
2017-12-06T03:31:43.912Z,80.68
2017-12-06T03:32:43.996Z,81.10
2017-12-06T03:33:44.061Z,81.37
2017-12-06T03:34:43.995Z,80.92
2017-12-06T03:35:44.066Z,81.71
2017-12-06T03:36:44.063Z,81.05
2017-12-06T03:37:44.041Z,80.39
2017-12-06T03:38:44.000Z,80.79
2017-12-06T03:39:44.066Z,81.32
2017-12-06T03:40:44.087Z,81.16
2017-12-06T03:41:44.068Z,80.71
2017-12-06T03:42:43.972Z,81.05
2017-12-06T03:43:43.939Z,81.24
2017-12-06T03:44:44.062Z,80.76
2017-12-06T03:45:43.980Z,81.50
2017-12-06T03:46:44.060Z,81.32
2017-12-06T03:47:43.938Z,81.58
2017-12-06T03:48:44.010Z,80.57
2017-12-06T03:49:44.026Z,80.79
2017-12-06T03:50:44.065Z,80.76
2017-12-06T03:51:44.064Z,80.81
2017-12-06T03:52:44.075Z,80.73
2017-12-06T03:53:44.008Z,80.79
2017-12-06T03:54:44.073Z,80.97
2017-12-06T03:55:44.075Z,81.56
2017-12-06T03:56:44.011Z,81.21
2017-12-06T03:57:44.077Z,81.26
2017-12-06T03:58:44.021Z,81.08
2017-12-06T03:59:44.078Z,81.52
2017-12-06T04:00:44.012Z,81.60
2017-12-06T04:01:44.144Z,81.87
2017-12-06T04:02:44.081Z,81.84
2017-12-06T04:03:44.014Z,81.66
2017-12-06T04:04:44.082Z,81.84
2017-12-06T04:05:44.018Z,81.16
2017-12-06T04:06:44.017Z,81.52
2017-12-06T04:07:44.085Z,81.32
2017-12-06T04:08:44.021Z,81.32
2017-12-06T04:09:44.021Z,81.84
2017-12-06T04:10:44.104Z,81.50
2017-12-06T04:11:44.084Z,81.32
2017-12-06T04:12:44.078Z,81.87
2017-12-06T04:13:43.952Z,81.68
2017-12-06T04:14:44.156Z,81.10
2017-12-06T04:15:43.991Z,81.02
2017-12-06T04:16:43.990Z,81.02
2017-12-06T04:17:44.086Z,80.79
2017-12-06T04:18:44.086Z,81.82
2017-12-06T04:19:44.087Z,81.50
2017-12-06T04:20:43.993Z,81.52
2017-12-06T04:21:44.061Z,81.48
2017-12-06T04:22:43.953Z,81.21
2017-12-06T04:23:44.016Z,81.34
2017-12-06T04:24:44.071Z,81.02
2017-12-06T04:25:43.959Z,81.40
2017-12-06T04:26:43.989Z,81.32
2017-12-06T04:27:44.075Z,81.76
2017-12-06T04:28:44.075Z,81.82
2017-12-06T04:29:43.959Z,82.29
2017-12-06T04:30:44.075Z,81.92
2017-12-06T04:31:44.048Z,81.58
2017-12-06T04:32:43.987Z,82.32
2017-12-06T04:33:44.034Z,81.98
2017-12-06T04:34:43.988Z,82.35
2017-12-06T04:35:43.989Z,82.48
2017-12-06T04:36:44.067Z,82.35
2017-12-06T04:37:44.076Z,81.84
2017-12-06T04:38:43.996Z,82.51
2017-12-06T04:39:44.107Z,82.64
2017-12-06T04:40:44.086Z,81.98
2017-12-06T04:41:44.031Z,82.06
2017-12-06T04:42:44.105Z,81.87
2017-12-06T04:43:44.033Z,82.21
2017-12-06T04:44:44.039Z,82.06
2017-12-06T04:45:44.042Z,82.14
2017-12-06T04:46:44.106Z,82.67
2017-12-06T04:47:44.040Z,82.43
2017-12-06T04:48:44.106Z,81.45
2017-12-06T04:49:44.041Z,81.71
2017-12-06T04:50:44.108Z,81.21
2017-12-06T04:51:44.108Z,81.87
2017-12-06T04:52:44.044Z,81.32
2017-12-06T04:53:44.111Z,81.34
2017-12-06T04:54:44.042Z,81.98
2017-12-06T04:55:44.112Z,82.08
2017-12-06T04:56:44.044Z,81.95
2017-12-06T04:57:43.996Z,81.52
2017-12-06T04:58:44.122Z,81.92
2017-12-06T04:59:44.079Z,82.21
2017-12-06T05:00:44.052Z,81.66
2017-12-06T05:01:44.125Z,81.56
2017-12-06T05:02:44.051Z,82.14
2017-12-06T05:03:44.125Z,82.51
2017-12-06T05:04:44.124Z,82.14
2017-12-06T05:05:44.052Z,82.00
2017-12-06T05:06:44.116Z,82.53
2017-12-06T05:07:44.053Z,82.56
2017-12-06T05:08:44.140Z,82.14
2017-12-06T05:09:44.119Z,82.48
2017-12-06T05:10:44.053Z,82.82
2017-12-06T05:11:44.123Z,82.35
2017-12-06T05:12:44.119Z,82.27
2017-12-06T05:13:44.081Z,82.21
2017-12-06T05:14:44.160Z,82.72
2017-12-06T05:15:43.996Z,82.48
2017-12-06T05:16:44.032Z,82.06
2017-12-06T05:17:44.081Z,81.98
2017-12-06T05:18:44.120Z,82.21
2017-12-06T05:19:44.066Z,82.29
2017-12-06T05:20:44.120Z,82.45
2017-12-06T05:21:44.115Z,82.37
2017-12-06T05:22:44.141Z,82.45
2017-12-06T05:23:44.066Z,82.48
2017-12-06T05:24:44.129Z,82.11
2017-12-06T05:25:44.060Z,81.82
2017-12-06T05:26:44.133Z,81.95
2017-12-06T05:27:44.069Z,81.56
2017-12-06T05:28:44.133Z,81.34
2017-12-06T05:29:44.067Z,81.13
2017-12-06T05:30:44.069Z,81.37
2017-12-06T05:31:44.133Z,82.06
2017-12-06T05:32:44.062Z,81.92
2017-12-06T05:33:44.019Z,81.95
2017-12-06T05:34:44.009Z,82.21
2017-12-06T05:35:44.123Z,82.11
2017-12-06T05:36:44.120Z,82.08
2017-12-06T05:37:44.106Z,81.68
2017-12-06T05:38:44.093Z,81.66
2017-12-06T05:39:44.065Z,81.71
2017-12-06T05:40:44.135Z,81.82
2017-12-06T05:41:44.012Z,82.14
2017-12-06T05:42:44.229Z,81.76
2017-12-06T05:43:44.106Z,81.74
2017-12-06T05:44:44.143Z,81.76
2017-12-06T05:45:44.074Z,82.35
2017-12-06T05:46:44.076Z,82.03
2017-12-06T05:47:44.076Z,82.11
2017-12-06T05:48:44.150Z,82.03
2017-12-06T05:49:44.073Z,81.82
2017-12-06T05:50:44.102Z,81.76
2017-12-06T05:51:44.144Z,81.82
2017-12-06T05:52:44.081Z,82.08
2017-12-06T05:53:44.149Z,81.71
2017-12-06T05:54:44.083Z,81.90
2017-12-06T05:55:44.153Z,81.87
2017-12-06T05:56:44.084Z,81.98
2017-12-06T05:57:44.152Z,82.51
2017-12-06T05:58:44.085Z,81.92
2017-12-06T05:59:44.151Z,82.19
2017-12-06T06:00:44.088Z,81.98
2017-12-06T06:01:44.156Z,81.37
2017-12-06T06:02:44.087Z,82.19
2017-12-06T06:03:44.154Z,82.00
2017-12-06T06:04:44.085Z,82.06
2017-12-06T06:05:44.155Z,82.48
2017-12-06T06:06:44.093Z,82.85
2017-12-06T06:07:44.170Z,82.35
2017-12-06T06:08:44.155Z,82.88
2017-12-06T06:09:44.167Z,82.14
2017-12-06T06:10:44.095Z,82.19
2017-12-06T06:11:44.164Z,82.48
2017-12-06T06:12:44.178Z,82.35
2017-12-06T06:13:44.060Z,82.11
2017-12-06T06:14:44.030Z,82.16
2017-12-06T06:15:44.069Z,81.60
2017-12-06T06:16:44.026Z,81.48
2017-12-06T06:17:44.130Z,81.58
2017-12-06T06:18:44.069Z,81.56
2017-12-06T06:19:44.027Z,81.87
2017-12-06T06:20:44.083Z,81.87
2017-12-06T06:21:44.161Z,81.87
2017-12-06T06:22:44.084Z,81.87
2017-12-06T06:23:44.163Z,81.87
2017-12-06T06:24:44.169Z,82.27
2017-12-06T06:25:44.185Z,82.43
2017-12-06T06:26:44.165Z,82.03
2017-12-06T06:27:44.102Z,82.19
2017-12-06T06:28:44.171Z,81.92
2017-12-06T06:29:44.166Z,81.84
2017-12-06T06:30:44.106Z,82.08
2017-12-06T06:31:44.206Z,81.92
2017-12-06T06:32:44.105Z,81.90
2017-12-06T06:33:44.072Z,81.87
2017-12-06T06:34:44.038Z,82.19
2017-12-06T06:35:44.076Z,82.32
2017-12-06T06:36:44.079Z,81.84
2017-12-06T06:37:44.109Z,82.14
2017-12-06T06:38:44.091Z,81.98
2017-12-06T06:39:44.053Z,82.29
2017-12-06T06:40:44.113Z,82.48
2017-12-06T06:41:44.166Z,83.14
2017-12-06T06:42:44.116Z,82.85
2017-12-06T06:43:44.121Z,83.59
2017-12-06T06:44:44.111Z,82.72
2017-12-06T06:45:44.109Z,83.22
2017-12-06T06:46:44.186Z,82.64
2017-12-06T06:47:44.182Z,82.82
2017-12-06T06:48:44.153Z,82.61
2017-12-06T06:49:44.121Z,83.20
2017-12-06T06:50:44.179Z,82.67
2017-12-06T06:51:44.182Z,82.69
2017-12-06T06:52:44.115Z,82.77
2017-12-06T06:53:44.133Z,82.69
2017-12-06T06:54:44.159Z,83.14
2017-12-06T06:55:44.075Z,83.12
2017-12-06T06:56:44.048Z,82.77
2017-12-06T06:57:44.149Z,82.75
2017-12-06T06:58:44.112Z,82.82
2017-12-06T06:59:44.145Z,83.04
2017-12-06T07:00:44.166Z,83.20
2017-12-06T07:01:44.141Z,82.88
2017-12-06T07:02:44.046Z,82.69
2017-12-06T07:03:44.096Z,82.88
2017-12-06T07:04:44.181Z,82.72
2017-12-06T07:05:44.189Z,83.04
2017-12-06T07:06:44.057Z,83.14
2017-12-06T07:07:44.129Z,83.06
2017-12-06T07:08:44.184Z,83.01
2017-12-06T07:09:44.185Z,83.22
2017-12-06T07:10:44.149Z,82.77
2017-12-06T07:11:44.148Z,82.51
2017-12-06T07:12:44.055Z,82.98
2017-12-06T07:13:44.131Z,83.01
2017-12-06T07:14:44.169Z,82.85
2017-12-06T07:15:44.149Z,82.51
2017-12-06T07:16:44.177Z,82.64
2017-12-06T07:17:44.159Z,83.06
2017-12-06T07:18:44.122Z,82.64
2017-12-06T07:19:44.123Z,82.72
2017-12-06T07:20:44.126Z,82.93
2017-12-06T07:21:44.160Z,82.93
2017-12-06T07:22:44.059Z,83.28
2017-12-06T07:23:44.136Z,82.88
2017-12-06T07:24:44.133Z,83.14
2017-12-06T07:25:44.135Z,83.40
2017-12-06T07:26:44.220Z,83.49
2017-12-06T07:27:44.209Z,83.38
2017-12-06T07:28:44.140Z,83.83
2017-12-06T07:29:44.203Z,83.54
2017-12-06T07:30:44.144Z,83.14
2017-12-06T07:31:44.208Z,83.38
2017-12-06T07:32:44.182Z,83.04
2017-12-06T07:33:44.205Z,83.04
2017-12-06T07:34:44.179Z,82.98
2017-12-06T07:35:44.144Z,83.22
2017-12-06T07:36:44.142Z,83.30
2017-12-06T07:37:44.207Z,82.82
2017-12-06T07:38:44.207Z,82.90
2017-12-06T07:39:44.143Z,83.49
2017-12-06T07:40:44.214Z,83.40
2017-12-06T07:41:44.143Z,82.85
2017-12-06T07:42:44.218Z,82.93
2017-12-06T07:43:44.148Z,83.12
2017-12-06T07:44:44.102Z,83.01
2017-12-06T07:45:44.197Z,83.20
2017-12-06T07:46:44.174Z,82.93
2017-12-06T07:47:44.176Z,83.28
2017-12-06T07:48:44.171Z,83.28
2017-12-06T07:49:44.107Z,82.45
2017-12-06T07:50:44.153Z,83.01
2017-12-06T07:51:44.079Z,82.72
2017-12-06T07:52:44.179Z,82.90
2017-12-06T07:53:44.151Z,82.75
2017-12-06T07:54:44.094Z,82.35
2017-12-06T07:55:44.154Z,82.27
2017-12-06T07:56:44.163Z,82.98
2017-12-06T07:57:44.194Z,83.44
2017-12-06T07:58:44.156Z,83.04
2017-12-06T07:59:44.154Z,82.88
2017-12-06T08:00:44.245Z,83.04
2017-12-06T08:01:44.221Z,82.56
2017-12-06T08:02:44.216Z,83.25
2017-12-06T08:03:44.201Z,82.75
2017-12-06T08:04:44.188Z,83.44
2017-12-06T08:05:44.222Z,83.17
2017-12-06T08:06:44.160Z,83.28
2017-12-06T08:07:44.225Z,82.61
2017-12-06T08:08:44.154Z,82.67
2017-12-06T08:09:44.182Z,82.51
2017-12-06T08:10:44.161Z,82.37
2017-12-06T08:11:44.231Z,82.19
2017-12-06T08:12:44.229Z,82.32
2017-12-06T08:13:44.156Z,82.27
2017-12-06T08:14:44.134Z,82.37
2017-12-06T08:15:44.101Z,82.43
2017-12-06T08:16:44.116Z,82.40
2017-12-06T08:17:44.155Z,82.67
2017-12-06T08:18:44.158Z,83.09
2017-12-06T08:19:44.101Z,82.72
2017-12-06T08:20:44.201Z,81.90
2017-12-06T08:21:44.142Z,82.27
2017-12-06T08:22:44.156Z,82.27
2017-12-06T08:23:44.058Z,82.51
2017-12-06T08:24:44.104Z,82.88
2017-12-06T08:25:44.119Z,83.01
2017-12-06T08:26:44.166Z,82.69
2017-12-06T08:27:44.157Z,82.51
2017-12-06T08:28:44.161Z,82.61
2017-12-06T08:29:44.057Z,82.29
2017-12-06T08:30:44.063Z,82.21
2017-12-06T08:31:44.093Z,82.40
2017-12-06T08:32:44.114Z,82.35
2017-12-06T08:33:44.188Z,82.32
2017-12-06T08:34:44.135Z,81.76
2017-12-06T08:35:44.190Z,82.37
2017-12-06T08:36:44.139Z,82.67
2017-12-06T08:37:44.190Z,82.32
2017-12-06T08:38:44.092Z,82.32
2017-12-06T08:39:44.096Z,82.59
2017-12-06T08:40:44.096Z,82.72
2017-12-06T08:41:44.144Z,82.35
2017-12-06T08:42:44.191Z,82.11
2017-12-06T08:43:44.181Z,81.98
2017-12-06T08:44:44.247Z,81.82
2017-12-06T08:45:44.181Z,81.90
2017-12-06T08:46:44.248Z,81.42
2017-12-06T08:47:44.181Z,81.32
2017-12-06T08:48:44.184Z,81.74
2017-12-06T08:49:44.256Z,81.82
2017-12-06T08:50:44.180Z,81.92
2017-12-06T08:51:44.258Z,82.21
2017-12-06T08:52:44.173Z,81.71
2017-12-06T08:53:44.251Z,81.32
2017-12-06T08:54:44.178Z,81.45
2017-12-06T08:55:44.254Z,81.82
2017-12-06T08:56:44.255Z,81.71
2017-12-06T08:57:44.185Z,81.92
2017-12-06T08:58:44.256Z,81.90
2017-12-06T08:59:44.185Z,81.98
2017-12-06T09:00:44.183Z,81.98
2017-12-06T09:01:44.256Z,81.26
2017-12-06T09:02:44.181Z,81.56
2017-12-06T09:03:44.185Z,81.79
2017-12-06T09:04:44.264Z,81.18
2017-12-06T09:05:44.193Z,80.92
2017-12-06T09:06:44.265Z,81.16
2017-12-06T09:07:44.197Z,81.08
2017-12-06T09:08:44.261Z,81.26
2017-12-06T09:09:44.230Z,81.32
2017-12-06T09:10:44.273Z,81.05
2017-12-06T09:11:44.194Z,81.42
2017-12-06T09:12:44.263Z,81.21
2017-12-06T09:13:44.176Z,81.16
2017-12-06T09:14:44.170Z,81.26
2017-12-06T09:15:44.135Z,81.00
2017-12-06T09:16:44.230Z,80.94
2017-12-06T09:17:44.146Z,80.94
2017-12-06T09:18:44.177Z,81.10
2017-12-06T09:19:44.173Z,81.16
2017-12-06T09:20:44.208Z,81.60
2017-12-06T09:21:44.144Z,81.02
2017-12-06T09:22:44.216Z,81.63
2017-12-06T09:23:44.224Z,81.74
2017-12-06T09:24:44.215Z,81.87
2017-12-06T09:25:44.215Z,81.71
2017-12-06T09:26:44.156Z,81.60
2017-12-06T09:27:44.222Z,81.50
2017-12-06T09:28:44.136Z,81.16
2017-12-06T09:29:44.236Z,81.26
2017-12-06T09:30:44.131Z,81.42
2017-12-06T09:31:44.240Z,81.58
2017-12-06T09:32:44.165Z,81.42
2017-12-06T09:33:44.206Z,81.40
2017-12-06T09:34:44.276Z,81.74
2017-12-06T09:35:44.205Z,81.84
2017-12-06T09:36:44.277Z,81.16
2017-12-06T09:37:44.203Z,81.71
2017-12-06T09:38:44.278Z,81.32
2017-12-06T09:39:44.207Z,81.48
2017-12-06T09:40:44.282Z,81.24
2017-12-06T09:41:44.210Z,80.15
2017-12-06T09:42:44.284Z,80.36
2017-12-06T09:43:44.280Z,80.60
2017-12-06T09:44:44.211Z,80.65
2017-12-06T09:45:44.285Z,80.15
2017-12-06T09:46:44.215Z,80.44
2017-12-06T09:47:44.289Z,80.79
2017-12-06T09:48:44.217Z,80.97
2017-12-06T09:49:44.286Z,80.23
2017-12-06T09:50:44.214Z,80.65
2017-12-06T09:51:44.287Z,79.79
2017-12-06T09:52:44.225Z,80.02
2017-12-06T09:53:44.212Z,80.21
2017-12-06T09:54:44.289Z,79.86
2017-12-06T09:55:44.215Z,79.97
2017-12-06T09:56:44.291Z,80.10
2017-12-06T09:57:44.216Z,80.15
2017-12-06T09:58:44.294Z,80.13
2017-12-06T09:59:44.221Z,80.23
2017-12-06T10:00:44.179Z,80.21
2017-12-06T10:01:44.224Z,80.41
2017-12-06T10:02:44.297Z,80.55
2017-12-06T10:03:44.225Z,80.63
2017-12-06T10:04:44.297Z,80.84
2017-12-06T10:05:44.225Z,80.07
2017-12-06T10:06:44.295Z,80.87
2017-12-06T10:07:44.230Z,80.15
2017-12-06T10:08:44.295Z,80.36
2017-12-06T10:09:44.229Z,80.21
2017-12-06T10:10:44.298Z,80.21
2017-12-06T10:11:44.225Z,80.65
2017-12-06T10:12:44.298Z,80.23
2017-12-06T10:13:44.287Z,80.33
2017-12-06T10:14:44.271Z,80.63
2017-12-06T10:15:44.212Z,81.18
2017-12-06T10:16:44.291Z,80.94
2017-12-06T10:17:44.300Z,81.18
2017-12-06T10:18:44.214Z,81.05
2017-12-06T10:19:44.272Z,81.48
2017-12-06T10:20:44.211Z,81.13
2017-12-06T10:21:44.183Z,80.68
2017-12-06T10:22:44.270Z,80.92
2017-12-06T10:23:44.227Z,81.10
2017-12-06T10:24:44.305Z,80.89
2017-12-06T10:25:44.231Z,81.08
2017-12-06T10:26:44.310Z,81.34
2017-12-06T10:27:44.306Z,80.89
2017-12-06T10:28:44.235Z,81.16
2017-12-06T10:29:44.308Z,80.65
2017-12-06T10:30:44.233Z,80.84
2017-12-06T10:31:44.310Z,81.52
2017-12-06T10:32:44.247Z,81.16
2017-12-06T10:33:44.201Z,81.71
2017-12-06T10:34:44.269Z,81.45
2017-12-06T10:35:44.200Z,81.26
2017-12-06T10:36:44.271Z,81.52
2017-12-06T10:37:44.241Z,81.00
2017-12-06T10:38:44.182Z,80.89
2017-12-06T10:39:44.181Z,81.05
2017-12-06T10:40:44.266Z,80.73
2017-12-06T10:41:44.267Z,80.65
2017-12-06T10:42:44.223Z,81.16
2017-12-06T10:43:44.244Z,80.89
2017-12-06T10:44:44.317Z,80.79
2017-12-06T10:45:44.340Z,80.33
2017-12-06T10:46:44.247Z,80.97
2017-12-06T10:47:44.247Z,81.16
2017-12-06T10:48:44.322Z,80.41
2017-12-06T10:49:44.249Z,80.68
2017-12-06T10:50:44.325Z,80.68
2017-12-06T10:51:44.248Z,80.55
2017-12-06T10:52:44.324Z,80.33
2017-12-06T10:53:44.247Z,79.41
2017-12-06T10:54:44.234Z,79.57
2017-12-06T10:55:44.220Z,80.02
2017-12-06T10:56:44.301Z,80.18
2017-12-06T10:57:44.212Z,79.75
2017-12-06T10:58:44.226Z,80.15
2017-12-06T10:59:44.214Z,80.39
2017-12-06T11:00:44.280Z,80.49
2017-12-06T11:01:44.190Z,80.02
2017-12-06T11:02:44.210Z,80.05
2017-12-06T11:03:44.264Z,80.52
2017-12-06T11:04:44.330Z,80.39
2017-12-06T11:05:44.288Z,79.68
2017-12-06T11:06:44.331Z,79.57
2017-12-06T11:07:44.335Z,80.44
2017-12-06T11:08:44.259Z,81.02
2017-12-06T11:09:44.337Z,80.76
2017-12-06T11:10:44.255Z,80.84
2017-12-06T11:11:44.336Z,79.81
2017-12-06T11:12:44.269Z,80.18
2017-12-06T11:13:44.335Z,80.36
2017-12-06T11:14:44.334Z,80.05
2017-12-06T11:15:44.262Z,80.15
2017-12-06T11:16:44.265Z,79.75
2017-12-06T11:17:44.338Z,79.47
2017-12-06T11:18:44.267Z,80.36
2017-12-06T11:19:44.340Z,79.94
2017-12-06T11:20:44.263Z,79.20
2017-12-06T11:21:44.270Z,79.91
2017-12-06T11:22:44.341Z,79.47
2017-12-06T11:23:44.269Z,79.20
2017-12-06T11:24:44.343Z,79.91
2017-12-06T11:25:44.271Z,79.65
2017-12-06T11:26:44.342Z,79.52
2017-12-06T11:27:44.273Z,78.94
2017-12-06T11:28:44.343Z,78.54
2017-12-06T11:29:44.274Z,79.15
2017-12-06T11:30:44.348Z,78.65
2017-12-06T11:31:44.346Z,79.23
2017-12-06T11:32:44.272Z,79.20
2017-12-06T11:33:44.386Z,79.02
2017-12-06T11:34:44.272Z,78.94
2017-12-06T11:35:44.349Z,79.25
2017-12-06T11:36:44.300Z,78.70
2017-12-06T11:37:44.351Z,79.05
2017-12-06T11:38:44.285Z,79.15
2017-12-06T11:39:44.350Z,79.25
2017-12-06T11:40:44.280Z,79.52
2017-12-06T11:41:44.350Z,78.86
2017-12-06T11:42:44.285Z,79.07
2017-12-06T11:43:44.356Z,78.86
2017-12-06T11:46:54.287Z,79.05
2017-12-06T11:47:44.348Z,79.79
2017-12-06T11:48:44.275Z,79.25
2017-12-06T11:49:44.351Z,79.49
2017-12-06T11:54:44.350Z,79.05
2017-12-06T11:55:44.279Z,78.78
2017-12-06T11:56:44.351Z,79.31
2017-12-06T11:57:44.278Z,79.13
2017-12-06T11:58:44.353Z,79.23
2017-12-06T11:59:44.352Z,79.28
2017-12-06T12:00:44.351Z,78.89
2017-12-06T12:01:44.266Z,78.86
2017-12-06T12:02:44.283Z,79.10
2017-12-06T12:03:44.356Z,79.39
2017-12-06T12:04:44.211Z,79.41
2017-12-06T12:05:44.261Z,79.81
2017-12-06T12:06:44.165Z,79.55
2017-12-06T12:07:44.252Z,79.25
2017-12-06T12:08:44.171Z,79.25
2017-12-06T12:09:44.176Z,79.05
2017-12-06T12:10:44.174Z,79.02
2017-12-06T12:11:44.205Z,78.86
2017-12-06T12:12:44.264Z,79.02
2017-12-06T12:13:44.263Z,79.44
2017-12-06T12:14:44.257Z,79.31
2017-12-06T12:15:44.306Z,79.15
2017-12-06T12:16:44.303Z,79.23
2017-12-06T12:17:44.311Z,79.28
2017-12-06T12:18:44.215Z,79.41
2017-12-06T12:19:44.314Z,79.15
2017-12-06T12:20:44.303Z,79.23
2017-12-06T12:21:44.261Z,79.02
2017-12-06T12:22:44.270Z,78.59
2017-12-06T12:23:44.308Z,78.86
2017-12-06T12:24:44.368Z,78.73
2017-12-06T12:25:44.345Z,78.83
2017-12-06T12:26:44.372Z,78.94
2017-12-06T12:27:44.306Z,78.47
2017-12-06T12:28:44.299Z,79.23
2017-12-06T12:29:44.372Z,78.99
2017-12-06T12:30:44.370Z,79.20
2017-12-06T12:31:44.303Z,78.97
2017-12-06T12:32:44.374Z,79.13
2017-12-06T12:33:44.307Z,79.60
2017-12-06T12:34:44.377Z,79.33
2017-12-06T12:35:44.307Z,78.91
2017-12-06T12:36:44.376Z,79.39
2017-12-06T12:37:44.305Z,79.25
2017-12-06T12:38:44.379Z,79.60
2017-12-06T12:39:44.307Z,79.33
2017-12-06T12:40:44.378Z,79.52
2017-12-06T12:41:44.300Z,80.10
2017-12-06T12:42:44.315Z,79.94
2017-12-06T12:43:44.379Z,79.68
2017-12-06T12:44:44.383Z,78.47
2017-12-06T12:45:44.307Z,78.47
2017-12-06T12:46:44.382Z,79.10
2017-12-06T12:47:44.308Z,78.86
2017-12-06T12:48:44.313Z,78.59
2017-12-06T12:49:44.389Z,78.83
2017-12-06T12:50:44.312Z,78.78
2017-12-06T12:51:44.269Z,78.75
2017-12-06T12:52:44.314Z,78.39
2017-12-06T12:53:44.387Z,78.86
2017-12-06T12:54:44.387Z,78.67
2017-12-06T12:55:44.297Z,79.05
2017-12-06T12:56:44.389Z,78.86
2017-12-06T12:57:44.355Z,78.54
2017-12-06T12:58:44.312Z,79.02